SPMS

Details ICAO SPMS (YMS)
Name MOISES BENZAQUEN RENGIFO
Region Peru
Timezone America/Lima (UTC-5.0)
Plans Departing 0
Arriving 0
Stats Elevation 587 ft / 179 m (AMSL)
Location -5.893773° -76.118210°
Runways 1
Magnetic Variation 4.060° W
Sunrise 2017-12-17 10:48:11 UTC / 2017-12-17 05:48:11 Local
Sunset 2017-12-17 23:15:56 UTC / 2017-12-17 18:15:56 Local
Advertisement - Login to hide

Runways

ID Width Length Bearing (true) Bearing (mag) Surface Threshold Offset Overrun Length
09 98 ft / 30 m 5,919 ft / 1,804 m 94.39° 98.45° Asphalt 0 ft / 0 m 188 ft / 57 m
27 98 ft / 30 m 5,919 ft / 1,804 m 274.39° 278.45° Asphalt 0 ft / 0 m 188 ft / 57 m

Map

Weather


0- 5 10 15 20 25 30 35+ Temperature / ° C

Clouds and Precipitation
Forecast for 2017-12-17 12:00 UTC. Updated an hour ago

Ground ~20,000 ft ~40,000 ft Winds

METAR

SPMS 171200Z 00000KT 9999 FEW015 BKN080 23/23 Q1012 RMK BIRD HAZARD RWY09/27 PP000

TAF

Not found
Warning: Do not use this data for real-world aviation or navigation. No guarantee of current accuracy is given.